NCAR-RAP Real-Time Weather Data

Output produced by METARs form (21 May 2019  11:04 UTC)
found at http://weather.rap.ucar.edu/surface/
 
RJOC 211000Z 25010KT 9999 FEW040 18/10 Q1005
RJOC 210900Z 25012KT 9999 FEW030 SCT/// 20/08 Q1005
RJOC 210800Z 26011KT 9999 FEW030 SCT/// 21/08 Q1005
RJOC 210700Z 25014KT 9999 FEW030 BKN/// 20/09 Q1005
RJOC 210600Z 24014KT 9999 FEW030 BKN/// 21/09 Q1005
RJOC 210500Z 24011KT 9999 FEW030 BKN/// 21/08 Q1005
RJOC 210400Z 24011KT 210V290 9999 FEW035 BKN/// 22/08 Q1005
RJOC 210300Z 26010KT 220V290 9999 FEW035 SCT/// 21/07 Q1005
RJOC 210200Z 31009KT 260V330 9999 FEW035 21/06 Q1006
RJOC 210100Z 25005KT 170V290 9999 FEW030 20/09 Q1006
RJOC 210000Z 28005KT 220V310 9999 FEW030 19/09 Q1006
RJOC 202300Z 27006KT 9999 FEW025 SCT030 BKN/// 19/11 Q1006
RJOC 202200Z 16006KT 9999 FEW025 SCT/// 17/11 Q1006
RJOC 202130Z 17005KT 9999 FEW020 SCT/// 16/12 Q1005
RJOC 202110Z 17004KT 9999 FEW020 15/12 Q1005 RMK 1CU020 A2970
RJOC 201100Z 18006KT 6000 SHRA FEW005 SCT030 BKN040 19/16 Q1003
RJOC 201049Z 19003KT 090V250 6000 SHRA FEW005 SCT030 BKN040 19/17 Q1003 RMK 1ST005 3CU030 5CU040 A2963
RJOC 201026Z 24006KT 8000 -SHRA FEW005 SCT020 BKN040 19/17 Q1003 RMK 1ST005 3CU020 5CU040 A2963
RJOC 201012Z 25012KT 6000 SHRA FEW003 SCT008 BKN020 19/17 Q1003 RMK 1ST003 3ST008 5CU020 A2964
RJOC 201000Z 25013G24KT 3000 +SHRA BR FEW003 SCT006 BKN015 19/17 Q1003
RJOC 200930Z 28003KT 3500 SHRA BR FEW006 SCT010 BKN025 21/19 Q1002 RMK 1ST006 3CU010 5CU025 A2961
RJOC 200923Z VRB02KT 3500 +SHRA BR FEW006 SCT015 BKN025 21/19 Q1002 RMK 1ST006 3CU015 5CU025 A2961
RJOC 200915Z VRB02KT 6000 SHRA BR FEW006 SCT015 BKN030 21/18 Q1002 RMK 1ST006 3CU015 5CU030 A2961
RJOC 200900Z 02003KT 350V060 9999 -SHRA FEW003 SCT040 BKN050 21/18 Q1002
RJOC 200800Z VRB01KT 8000 -SHRA FEW003 SCT025 BKN035 21/19 Q1002
RJOC 200726Z 28004KT 8000 SHRA FEW005 SCT025 BKN035 21/18 Q1002 RMK 1ST005 3CU025 5CU035 A2961
RJOC 200700Z 30004KT 250V360 9999 -SHRA FEW005 SCT030 BKN040 21/18 Q1002
RJOC 200642Z 35004KT 260V010 8000 SHRA BR FEW005 SCT030 BKN040 22/18 Q1002 RMK 1ST005 3CU030 5CU040 A2959 4000W
RJOC 200600Z 23007KT 180V290 9999 -SHRA BR FEW030 SCT040 BKN050 24/16 Q1002
RJOC 200500Z 19008KT 9999 FEW030 SCT040 BKN050 26/15 Q1002
RJOC 200400Z 16010KT 130V190 9999 FEW030 BKN045 BKN100 27/15 Q1002
RJOC 200300Z 15009KT 9999 FEW030 SCT045 BKN100 27/15 Q1003
RJOC 200200Z 15014KT 9999 FEW030 SCT100 BKN180 27/15 Q1003
RJOC 200100Z 15015KT 9999 FEW025 SCT100 BKN180 25/15 Q1004
RJOC 200000Z 16016G26KT 130V200 9999 FEW020 SCT045 BKN120 25/15 Q1004
RJOC 192300Z 09004KT 050V140 9999 -SHRA FEW020 SCT045 BKN090 22/15 Q1005
RJOC 192200Z 12007KT 070V150 9999 -SHRA FEW025 SCT045 BKN100 22/14 Q1005
RJOC 192130Z 12004KT 090V160 9999 FEW025 SCT045 BKN100 21/15 Q1006
RJOC 192110Z VRB01KT 9999 FEW025 SCT045 BKN100 21/14 Q1006 RMK 1CU025 3CU045 5AC100 A2972
RJOC 191100Z VRB04KT CAVOK 23/12 Q1011
RJOC 191000Z 09006KT 360V160 9999 FEW035 SCT090 BKN120 23/13 Q1011
RJOC 190900Z 13007KT 100V170 9999 FEW035 SCT120 BKN140 24/13 Q1011
RJOC 190800Z 16017KT 9999 -RA FEW035 SCT100 BKN150 25/14 Q1011
RJOC 190700Z 17015KT 9999 FEW035 BKN140 BKN/// 26/13 Q1011
RJOC 190600Z 16015KT 9999 FEW035 SCT140 BKN/// 28/13 Q1011
RJOC 190500Z 15013KT 120V180 9999 FEW035 BKN/// 29/13 Q1011
RJOC 190400Z 17013KT 140V210 9999 FEW035 BKN/// 28/13 Q1011
RJOC 190300Z 15012KT 120V190 9999 FEW035 SCT090 BKN/// 28/12 Q1012
RJOC 190200Z 15009KT 120V200 9999 FEW035 SCT090 BKN170 28/12 Q1012
RJOC 190100Z 15009KT 120V180 9999 FEW035 BKN/// 27/12 Q1013
RJOC 190000Z 13007KT 070V180 9999 FEW035 BKN/// 25/12 Q1013